KOXD/OXD METAR and TAF weather

Enter ICAO airport designator
Station Type Date Time Source
KOXD METAR 2019/10/15 04:18 UTC NOAA

KOXD 150418Z AUTO 00000KT 10SM CLR 05/04 A3011 RMK AO2 T00450040


Station Type Date Time Source
KOXD Decoded METAR 2019/10/15 04:18 UTC NOAA

Station name not available
Oct 15, 2019 - 12:18 AM EDT / 2019.10.15 0418 UTC
Wind: Calm:0
Visibility: 10 mile(s):0
Sky conditions: clear
Temperature: 40.1 F (4.5 C)
Dew Point: 39.2 F (4.0 C)
Relative Humidity: 96%
Pressure (altimeter): 30.11 in. Hg (1019 hPa)
ob: KOXD 150418Z AUTO 00000KT 10SM CLR 05/04 A3011 RMK AO2 T00450040
cycle: 4

Station Type Date Time Source
KOXD TAF UTC NOAA

Error!

Example: see airport list